sensor_id;sensor_type;location;lat;lon;timestamp;temperature;humidity
14614;DHT22;7393;51.446;6.800;2023-08-21T00:01:45;21.00;99.90
14614;DHT22;7393;51.446;6.800;2023-08-21T00:04:11;21.00;1.00
14614;DHT22;7393;51.446;6.800;2023-08-21T00:06:38;20.90;8.40
14614;DHT22;7393;51.446;6.800;2023-08-21T00:09:05;20.90;1.00
14614;DHT22;7393;51.446;6.800;2023-08-21T00:11:32;20.90;99.90
14614;DHT22;7393;51.446;6.800;2023-08-21T00:13:59;20.90;99.90
14614;DHT22;7393;51.446;6.800;2023-08-21T00:16:27;20.90;99.90
14614;DHT22;7393;51.446;6.800;2023-08-21T00:18:54;20.80;1.00
14614;DHT22;7393;51.446;6.800;2023-08-21T00:21:20;20.80;1.00
14614;DHT22;7393;51.446;6.800;2023-08-21T00:23:47;20.80;1.00
14614;DHT22;7393;51.446;6.800;2023-08-21T00:26:14;20.70;1.00
14614;DHT22;7393;51.446;6.800;2023-08-21T00:28:41;20.70;99.90
14614;DHT22;7393;51.446;6.800;2023-08-21T00:31:07;20.70;99.90
14614;DHT22;7393;51.446;6.800;2023-08-21T00:33:36;20.60;1.00
14614;DHT22;7393;51.446;6.800;2023-08-21T00:36:03;20.50;1.00
14614;DHT22;7393;51.446;6.800;2023-08-21T00:38:30;20.50;1.00
14614;DHT22;7393;51.446;6.800;2023-08-21T00:40:57;20.50;99.90
14614;DHT22;7393;51.446;6.800;2023-08-21T00:43:24;20.40;99.90
14614;DHT22;7393;51.446;6.800;2023-08-21T00:45:51;20.40;1.00
14614;DHT22;7393;51.446;6.800;2023-08-21T00:48:18;20.30;1.00
14614;DHT22;7393;51.446;6.800;2023-08-21T00:50:47;20.30;28.60
14614;DHT22;7393;51.446;6.800;2023-08-21T00:53:14;20.30;99.90
14614;DHT22;7393;51.446;6.800;2023-08-21T00:55:41;20.20;1.00
14614;DHT22;7393;51.446;6.800;2023-08-21T00:58:10;20.20;1.00
14614;DHT22;7393;51.446;6.800;2023-08-21T01:00:37;20.20;94.00
14614;DHT22;7393;51.446;6.800;2023-08-21T01:03:04;20.20;99.90
14614;DHT22;7393;51.446;6.800;2023-08-21T01:05:31;20.10;1.00
14614;DHT22;7393;51.446;6.800;2023-08-21T01:08:04;20.10;1.00
14614;DHT22;7393;51.446;6.800;2023-08-21T01:10:48;20.10;99.90
14614;DHT22;7393;51.446;6.800;2023-08-21T01:13:26;20.00;99.90
14614;DHT22;7393;51.446;6.800;2023-08-21T01:15:57;20.00;1.00
14614;DHT22;7393;51.446;6.800;2023-08-21T01:18:26;20.00;1.00
14614;DHT22;7393;51.446;6.800;2023-08-21T01:20:55;20.00;99.90
14614;DHT22;7393;51.446;6.800;2023-08-21T01:23:30;20.00;99.90
14614;DHT22;7393;51.446;6.800;2023-08-21T01:25:57;20.00;1.00
14614;DHT22;7393;51.446;6.800;2023-08-21T01:28:24;19.90;99.90
14614;DHT22;7393;51.446;6.800;2023-08-21T01:30:54;19.90;99.90
14614;DHT22;7393;51.446;6.800;2023-08-21T01:33:25;19.90;1.00
14614;DHT22;7393;51.446;6.800;2023-08-21T01:35:53;19.80;1.00
14614;DHT22;7393;51.446;6.800;2023-08-21T01:38:21;19.80;1.00
14614;DHT22;7393;51.446;6.800;2023-08-21T01:40:50;19.70;99.90
14614;DHT22;7393;51.446;6.800;2023-08-21T01:43:16;19.70;99.90
14614;DHT22;7393;51.446;6.800;2023-08-21T01:45:44;19.70;99.90
14614;DHT22;7393;51.446;6.800;2023-08-21T01:48:10;19.60;1.00
14614;DHT22;7393;51.446;6.800;2023-08-21T01:50:37;19.60;1.00
14614;DHT22;7393;51.446;6.800;2023-08-21T01:53:04;19.60;1.00
14614;DHT22;7393;51.446;6.800;2023-08-21T01:55:32;19.60;1.00
14614;DHT22;7393;51.446;6.800;2023-08-21T01:58:00;19.60;1.00
14614;DHT22;7393;51.446;6.800;2023-08-21T02:00:27;19.50;1.00
14614;DHT22;7393;51.446;6.800;2023-08-21T02:02:53;19.60;1.00
14614;DHT22;7393;51.446;6.800;2023-08-21T02:05:20;19.60;1.00
14614;DHT22;7393;51.446;6.800;2023-08-21T02:07:47;19.60;1.00
14614;DHT22;7393;51.446;6.800;2023-08-21T02:10:14;19.50;1.00
14614;DHT22;7393;51.446;6.800;2023-08-21T02:12:41;19.50;76.60
14614;DHT22;7393;51.446;6.800;2023-08-21T02:15:10;19.40;99.90
14614;DHT22;7393;51.446;6.800;2023-08-21T02:17:36;19.40;99.90
14614;DHT22;7393;51.446;6.800;2023-08-21T02:20:04;19.30;99.90
14614;DHT22;7393;51.446;6.800;2023-08-21T02:22:31;19.30;1.00
14614;DHT22;7393;51.446;6.800;2023-08-21T02:24:57;19.30;1.00
14614;DHT22;7393;51.446;6.800;2023-08-21T02:27:24;19.30;1.00
14614;DHT22;7393;51.446;6.800;2023-08-21T02:29:51;19.30;1.00
14614;DHT22;7393;51.446;6.800;2023-08-21T02:32:19;19.20;1.00
14614;DHT22;7393;51.446;6.800;2023-08-21T02:34:46;19.20;1.00
14614;DHT22;7393;51.446;6.800;2023-08-21T02:37:12;19.20;1.00
14614;DHT22;7393;51.446;6.800;2023-08-21T02:39:39;19.20;1.00
14614;DHT22;7393;51.446;6.800;2023-08-21T02:42:06;19.20;1.00
14614;DHT22;7393;51.446;6.800;2023-08-21T02:44:33;19.20;1.00
14614;DHT22;7393;51.446;6.800;2023-08-21T02:47:00;19.20;1.00
14614;DHT22;7393;51.446;6.800;2023-08-21T02:49:28;19.20;1.00
14614;DHT22;7393;51.446;6.800;2023-08-21T02:51:54;19.20;1.00
14614;DHT22;7393;51.446;6.800;2023-08-21T02:54:21;19.10;1.00
14614;DHT22;7393;51.446;6.800;2023-08-21T02:56:48;19.10;1.00
14614;DHT22;7393;51.446;6.800;2023-08-21T02:59:15;19.10;1.00
14614;DHT22;7393;51.446;6.800;2023-08-21T03:01:41;19.10;1.00
14614;DHT22;7393;51.446;6.800;2023-08-21T03:04:08;19.00;1.00
14614;DHT22;7393;51.446;6.800;2023-08-21T03:06:36;19.00;1.00
14614;DHT22;7393;51.446;6.800;2023-08-21T03:09:03;19.00;1.00
14614;DHT22;7393;51.446;6.800;2023-08-21T03:11:30;19.00;1.00
14614;DHT22;7393;51.446;6.800;2023-08-21T03:13:57;19.00;1.00
14614;DHT22;7393;51.446;6.800;2023-08-21T03:16:23;19.00;1.00
14614;DHT22;7393;51.446;6.800;2023-08-21T03:18:54;18.90;1.00
14614;DHT22;7393;51.446;6.800;2023-08-21T03:21:22;19.00;6.40
14614;DHT22;7393;51.446;6.800;2023-08-21T03:23:51;19.00;97.90
14614;DHT22;7393;51.446;6.800;2023-08-21T03:26:18;19.00;59.90
14614;DHT22;7393;51.446;6.800;2023-08-21T03:28:45;19.10;20.10
14614;DHT22;7393;51.446;6.800;2023-08-21T03:31:12;19.10;4.70
14614;DHT22;7393;51.446;6.800;2023-08-21T03:33:38;19.10;1.00
14614;DHT22;7393;51.446;6.800;2023-08-21T03:36:06;19.10;1.00
14614;DHT22;7393;51.446;6.800;2023-08-21T03:38:32;19.10;1.00
14614;DHT22;7393;51.446;6.800;2023-08-21T03:41:01;19.10;1.00
14614;DHT22;7393;51.446;6.800;2023-08-21T03:43:28;19.10;1.00
14614;DHT22;7393;51.446;6.800;2023-08-21T03:45:54;19.10;1.00
14614;DHT22;7393;51.446;6.800;2023-08-21T03:48:21;19.10;1.00
14614;DHT22;7393;51.446;6.800;2023-08-21T03:50:49;19.10;1.00
14614;DHT22;7393;51.446;6.800;2023-08-21T03:53:16;19.10;1.00
14614;DHT22;7393;51.446;6.800;2023-08-21T03:55:42;19.10;1.00
14614;DHT22;7393;51.446;6.800;2023-08-21T03:58:11;19.10;1.00
14614;DHT22;7393;51.446;6.800;2023-08-21T04:00:38;19.00;1.00
14614;DHT22;7393;51.446;6.800;2023-08-21T04:03:05;19.00;1.00
14614;DHT22;7393;51.446;6.800;2023-08-21T04:05:32;19.00;2.00
14614;DHT22;7393;51.446;6.800;2023-08-21T04:07:59;18.90;48.70
14614;DHT22;7393;51.446;6.800;2023-08-21T04:10:26;18.90;99.90
14614;DHT22;7393;51.446;6.800;2023-08-21T04:12:52;18.90;99.90
14614;DHT22;7393;51.446;6.800;2023-08-21T04:15:20;18.80;99.90
14614;DHT22;7393;51.446;6.800;2023-08-21T04:17:47;18.80;99.90
14614;DHT22;7393;51.446;6.800;2023-08-21T04:20:14;18.80;99.90
14614;DHT22;7393;51.446;6.800;2023-08-21T04:22:41;18.80;99.90
14614;DHT22;7393;51.446;6.800;2023-08-21T04:25:08;18.80;99.90
14614;DHT22;7393;51.446;6.800;2023-08-21T04:27:36;18.80;99.90
14614;DHT22;7393;51.446;6.800;2023-08-21T04:30:04;18.80;99.90
14614;DHT22;7393;51.446;6.800;2023-08-21T04:32:32;18.80;99.90
14614;DHT22;7393;51.446;6.800;2023-08-21T04:34:59;18.80;99.90
14614;DHT22;7393;51.446;6.800;2023-08-21T04:37:26;18.80;99.90
14614;DHT22;7393;51.446;6.800;2023-08-21T04:39:54;18.80;99.90
14614;DHT22;7393;51.446;6.800;2023-08-21T04:42:21;18.80;99.90
14614;DHT22;7393;51.446;6.800;2023-08-21T04:44:48;18.70;99.90
14614;DHT22;7393;51.446;6.800;2023-08-21T04:47:21;18.80;99.90
14614;DHT22;7393;51.446;6.800;2023-08-21T04:49:50;18.80;99.90
14614;DHT22;7393;51.446;6.800;2023-08-21T04:52:17;18.80;99.90
14614;DHT22;7393;51.446;6.800;2023-08-21T04:54:44;18.80;99.90
14614;DHT22;7393;51.446;6.800;2023-08-21T04:57:11;18.90;99.90
14614;DHT22;7393;51.446;6.800;2023-08-21T04:59:38;18.90;99.90
14614;DHT22;7393;51.446;6.800;2023-08-21T05:02:05;18.90;99.90
14614;DHT22;7393;51.446;6.800;2023-08-21T05:04:32;19.00;99.90
14614;DHT22;7393;51.446;6.800;2023-08-21T05:07:00;19.00;99.90
14614;DHT22;7393;51.446;6.800;2023-08-21T05:09:27;19.00;99.90
14614;DHT22;7393;51.446;6.800;2023-08-21T05:11:54;18.90;99.90
14614;DHT22;7393;51.446;6.800;2023-08-21T05:14:21;18.90;99.90
14614;DHT22;7393;51.446;6.800;2023-08-21T05:16:49;19.00;99.90
14614;DHT22;7393;51.446;6.800;2023-08-21T05:19:15;19.00;99.90
14614;DHT22;7393;51.446;6.800;2023-08-21T05:21:42;19.00;99.90
14614;DHT22;7393;51.446;6.800;2023-08-21T05:24:10;19.00;99.90
14614;DHT22;7393;51.446;6.800;2023-08-21T05:26:38;19.10;99.90
14614;DHT22;7393;51.446;6.800;2023-08-21T05:29:04;19.00;99.90
14614;DHT22;7393;51.446;6.800;2023-08-21T05:31:31;19.10;99.90
14614;DHT22;7393;51.446;6.800;2023-08-21T05:33:58;19.10;99.90
14614;DHT22;7393;51.446;6.800;2023-08-21T05:36:25;19.10;99.90
14614;DHT22;7393;51.446;6.800;2023-08-21T05:38:52;19.20;99.90
14614;DHT22;7393;51.446;6.800;2023-08-21T05:41:20;19.20;99.90
14614;DHT22;7393;51.446;6.800;2023-08-21T05:43:47;19.30;1.00
14614;DHT22;7393;51.446;6.800;2023-08-21T05:46:14;19.40;1.00
14614;DHT22;7393;51.446;6.800;2023-08-21T05:48:41;19.40;99.90
14614;DHT22;7393;51.446;6.800;2023-08-21T05:51:08;19.50;99.90
14614;DHT22;7393;51.446;6.800;2023-08-21T05:53:34;19.50;6.60
14614;DHT22;7393;51.446;6.800;2023-08-21T05:56:01;19.50;1.00
14614;DHT22;7393;51.446;6.800;2023-08-21T05:58:29;19.60;1.00
14614;DHT22;7393;51.446;6.800;2023-08-21T06:00:58;19.60;99.90
14614;DHT22;7393;51.446;6.800;2023-08-21T06:03:25;19.60;99.90
14614;DHT22;7393;51.446;6.800;2023-08-21T06:05:52;19.70;56.90
14614;DHT22;7393;51.446;6.800;2023-08-21T06:08:19;19.70;99.90
14614;DHT22;7393;51.446;6.800;2023-08-21T06:10:50;19.70;1.00
14614;DHT22;7393;51.446;6.800;2023-08-21T06:13:16;19.80;1.00
14614;DHT22;7393;51.446;6.800;2023-08-21T06:15:45;19.90;1.00
14614;DHT22;7393;51.446;6.800;2023-08-21T06:18:11;19.90;1.00
14614;DHT22;7393;51.446;6.800;2023-08-21T06:20:38;19.90;1.00
14614;DHT22;7393;51.446;6.800;2023-08-21T06:23:05;19.90;1.00
14614;DHT22;7393;51.446;6.800;2023-08-21T06:25:32;20.00;1.00
14614;DHT22;7393;51.446;6.800;2023-08-21T06:27:59;20.00;99.90
14614;DHT22;7393;51.446;6.800;2023-08-21T06:30:26;20.10;99.90
14614;DHT22;7393;51.446;6.800;2023-08-21T06:32:54;20.20;11.10
14614;DHT22;7393;51.446;6.800;2023-08-21T06:35:21;20.20;1.00
14614;DHT22;7393;51.446;6.800;2023-08-21T06:37:48;20.30;1.00
14614;DHT22;7393;51.446;6.800;2023-08-21T06:40:15;20.30;99.90
14614;DHT22;7393;51.446;6.800;2023-08-21T06:42:42;20.30;99.90
14614;DHT22;7393;51.446;6.800;2023-08-21T06:45:09;20.30;57.40
14614;DHT22;7393;51.446;6.800;2023-08-21T06:47:36;20.30;99.90
14614;DHT22;7393;51.446;6.800;2023-08-21T06:50:05;20.40;1.00
14614;DHT22;7393;51.446;6.800;2023-08-21T06:52:32;20.40;1.00
14614;DHT22;7393;51.446;6.800;2023-08-21T06:54:59;20.50;99.90
14614;DHT22;7393;51.446;6.800;2023-08-21T06:57:25;20.50;1.00
14614;DHT22;7393;51.446;6.800;2023-08-21T06:59:52;20.60;1.00
14614;DHT22;7393;51.446;6.800;2023-08-21T07:02:19;20.60;99.90
14614;DHT22;7393;51.446;6.800;2023-08-21T07:04:46;20.70;99.90
14614;DHT22;7393;51.446;6.800;2023-08-21T07:07:14;20.80;83.60
14614;DHT22;7393;51.446;6.800;2023-08-21T07:09:41;20.80;99.90
14614;DHT22;7393;51.446;6.800;2023-08-21T07:12:08;20.90;1.00
14614;DHT22;7393;51.446;6.800;2023-08-21T07:14:34;21.00;1.00
14614;DHT22;7393;51.446;6.800;2023-08-21T07:17:01;21.10;1.00
14614;DHT22;7393;51.446;6.800;2023-08-21T07:19:28;21.20;1.00
14614;DHT22;7393;51.446;6.800;2023-08-21T07:21:55;21.40;99.90
14614;DHT22;7393;51.446;6.800;2023-08-21T07:24:23;21.60;99.90
14614;DHT22;7393;51.446;6.800;2023-08-21T07:26:50;21.70;1.00
14614;DHT22;7393;51.446;6.800;2023-08-21T07:29:16;21.70;1.00
14614;DHT22;7393;51.446;6.800;2023-08-21T07:31:43;21.80;99.90
14614;DHT22;7393;51.446;6.800;2023-08-21T07:34:10;21.90;99.90
14614;DHT22;7393;51.446;6.800;2023-08-21T07:36:37;22.00;1.00
14614;DHT22;7393;51.446;6.800;2023-08-21T07:39:03;22.10;1.00
14614;DHT22;7393;51.446;6.800;2023-08-21T07:41:31;22.20;1.00
14614;DHT22;7393;51.446;6.800;2023-08-21T07:43:58;22.30;1.00
14614;DHT22;7393;51.446;6.800;2023-08-21T07:46:25;22.40;99.90
14614;DHT22;7393;51.446;6.800;2023-08-21T07:48:53;22.50;99.90
14614;DHT22;7393;51.446;6.800;2023-08-21T07:51:20;22.70;99.90
14614;DHT22;7393;51.446;6.800;2023-08-21T07:53:46;22.60;99.90
14614;DHT22;7393;51.446;6.800;2023-08-21T07:56:13;22.70;99.90
14614;DHT22;7393;51.446;6.800;2023-08-21T07:58:41;22.70;99.90
14614;DHT22;7393;51.446;6.800;2023-08-21T08:01:08;22.80;99.90
14614;DHT22;7393;51.446;6.800;2023-08-21T08:03:35;22.80;99.90
14614;DHT22;7393;51.446;6.800;2023-08-21T08:06:04;22.90;99.90
14614;DHT22;7393;51.446;6.800;2023-08-21T08:08:31;23.00;99.90
14614;DHT22;7393;51.446;6.800;2023-08-21T08:11:02;23.10;99.90
14614;DHT22;7393;51.446;6.800;2023-08-21T08:13:29;23.20;99.90
14614;DHT22;7393;51.446;6.800;2023-08-21T08:15:58;23.20;99.90
14614;DHT22;7393;51.446;6.800;2023-08-21T08:18:24;23.30;99.90
14614;DHT22;7393;51.446;6.800;2023-08-21T08:20:51;23.30;99.90
14614;DHT22;7393;51.446;6.800;2023-08-21T08:23:19;23.40;99.90
14614;DHT22;7393;51.446;6.800;2023-08-21T08:25:47;23.50;99.90
14614;DHT22;7393;51.446;6.800;2023-08-21T08:28:14;23.60;99.90
14614;DHT22;7393;51.446;6.800;2023-08-21T08:30:41;23.70;99.90
14614;DHT22;7393;51.446;6.800;2023-08-21T08:33:09;23.80;99.90
14614;DHT22;7393;51.446;6.800;2023-08-21T08:35:36;24.00;99.90
14614;DHT22;7393;51.446;6.800;2023-08-21T08:38:03;24.00;94.80
14614;DHT22;7393;51.446;6.800;2023-08-21T08:40:30;24.10;81.60
14614;DHT22;7393;51.446;6.800;2023-08-21T08:42:57;24.20;82.30
14614;DHT22;7393;51.446;6.800;2023-08-21T08:45:29;24.30;42.50
14614;DHT22;7393;51.446;6.800;2023-08-21T08:47:59;24.30;46.40
14614;DHT22;7393;51.446;6.800;2023-08-21T08:50:28;24.40;30.00
14614;DHT22;7393;51.446;6.800;2023-08-21T08:52:57;24.50;16.40
14614;DHT22;7393;51.446;6.800;2023-08-21T08:55:24;24.70;1.00
14614;DHT22;7393;51.446;6.800;2023-08-21T08:57:51;24.70;1.00
14614;DHT22;7393;51.446;6.800;2023-08-21T09:00:18;24.80;1.00
14614;DHT22;7393;51.446;6.800;2023-08-21T09:02:47;24.80;1.00
14614;DHT22;7393;51.446;6.800;2023-08-21T09:05:14;24.90;1.00
14614;DHT22;7393;51.446;6.800;2023-08-21T09:07:42;25.10;1.00
14614;DHT22;7393;51.446;6.800;2023-08-21T09:10:13;25.20;1.00
14614;DHT22;7393;51.446;6.800;2023-08-21T09:12:40;25.30;1.00
14614;DHT22;7393;51.446;6.800;2023-08-21T09:15:08;25.30;1.00
14614;DHT22;7393;51.446;6.800;2023-08-21T09:17:35;25.40;1.00
14614;DHT22;7393;51.446;6.800;2023-08-21T09:20:05;25.40;1.00
14614;DHT22;7393;51.446;6.800;2023-08-21T09:22:33;25.40;1.00
14614;DHT22;7393;51.446;6.800;2023-08-21T09:25:02;25.50;1.00
14614;DHT22;7393;51.446;6.800;2023-08-21T09:27:32;25.40;1.00
14614;DHT22;7393;51.446;6.800;2023-08-21T09:29:59;25.60;1.00
14614;DHT22;7393;51.446;6.800;2023-08-21T09:32:27;25.60;1.00
14614;DHT22;7393;51.446;6.800;2023-08-21T09:34:54;25.70;1.00
14614;DHT22;7393;51.446;6.800;2023-08-21T09:37:20;25.70;1.00
14614;DHT22;7393;51.446;6.800;2023-08-21T09:39:47;25.70;1.00
14614;DHT22;7393;51.446;6.800;2023-08-21T09:42:18;25.70;1.00
14614;DHT22;7393;51.446;6.800;2023-08-21T09:44:44;25.70;1.00
14614;DHT22;7393;51.446;6.800;2023-08-21T09:47:15;25.70;1.00
14614;DHT22;7393;51.446;6.800;2023-08-21T09:49:42;25.80;1.00
14614;DHT22;7393;51.446;6.800;2023-08-21T09:52:09;25.90;1.00
14614;DHT22;7393;51.446;6.800;2023-08-21T09:54:38;26.10;1.00
14614;DHT22;7393;51.446;6.800;2023-08-21T09:57:05;26.20;1.00
14614;DHT22;7393;51.446;6.800;2023-08-21T09:59:33;26.30;1.00
14614;DHT22;7393;51.446;6.800;2023-08-21T10:02:00;26.30;1.00
14614;DHT22;7393;51.446;6.800;2023-08-21T10:04:28;26.40;1.00
14614;DHT22;7393;51.446;6.800;2023-08-21T10:06:56;26.50;1.00
14614;DHT22;7393;51.446;6.800;2023-08-21T10:09:24;26.70;1.00
14614;DHT22;7393;51.446;6.800;2023-08-21T10:11:52;26.80;1.00
14614;DHT22;7393;51.446;6.800;2023-08-21T10:14:21;26.80;1.00
14614;DHT22;7393;51.446;6.800;2023-08-21T10:16:51;26.90;1.00
14614;DHT22;7393;51.446;6.800;2023-08-21T10:19:19;26.90;1.00
14614;DHT22;7393;51.446;6.800;2023-08-21T10:21:47;26.80;1.00
14614;DHT22;7393;51.446;6.800;2023-08-21T10:24:26;26.90;1.00
14614;DHT22;7393;51.446;6.800;2023-08-21T10:26:53;27.00;1.00
14614;DHT22;7393;51.446;6.800;2023-08-21T10:29:20;27.00;1.00
14614;DHT22;7393;51.446;6.800;2023-08-21T10:32:00;27.00;1.00
14614;DHT22;7393;51.446;6.800;2023-08-21T10:34:32;27.10;1.00
14614;DHT22;7393;51.446;6.800;2023-08-21T10:37:07;27.20;1.00
14614;DHT22;7393;51.446;6.800;2023-08-21T10:39:35;27.20;1.00
14614;DHT22;7393;51.446;6.800;2023-08-21T10:42:05;27.20;1.00
14614;DHT22;7393;51.446;6.800;2023-08-21T10:44:36;27.20;1.00
14614;DHT22;7393;51.446;6.800;2023-08-21T10:47:15;27.30;1.00
14614;DHT22;7393;51.446;6.800;2023-08-21T10:49:43;27.30;1.00
14614;DHT22;7393;51.446;6.800;2023-08-21T10:52:10;27.40;1.00
14614;DHT22;7393;51.446;6.800;2023-08-21T10:54:46;27.50;1.00
14614;DHT22;7393;51.446;6.800;2023-08-21T10:57:14;27.60;1.00
14614;DHT22;7393;51.446;6.800;2023-08-21T11:00:05;27.60;1.00
14614;DHT22;7393;51.446;6.800;2023-08-21T11:02:37;27.60;1.00
14614;DHT22;7393;51.446;6.800;2023-08-21T11:05:05;27.60;1.00
14614;DHT22;7393;51.446;6.800;2023-08-21T11:07:39;27.70;1.00
14614;DHT22;7393;51.446;6.800;2023-08-21T11:10:08;27.60;1.00
14614;DHT22;7393;51.446;6.800;2023-08-21T11:12:36;27.60;1.00
14614;DHT22;7393;51.446;6.800;2023-08-21T11:15:03;27.60;1.00
14614;DHT22;7393;51.446;6.800;2023-08-21T11:17:30;27.70;1.00
14614;DHT22;7393;51.446;6.800;2023-08-21T11:20:01;27.90;1.00
14614;DHT22;7393;51.446;6.800;2023-08-21T11:22:31;28.00;1.00
14614;DHT22;7393;51.446;6.800;2023-08-21T11:24:58;28.30;1.00
14614;DHT22;7393;51.446;6.800;2023-08-21T11:27:49;28.50;1.00
14614;DHT22;7393;51.446;6.800;2023-08-21T11:30:17;28.70;1.00
14614;DHT22;7393;51.446;6.800;2023-08-21T11:32:44;28.90;1.00
14614;DHT22;7393;51.446;6.800;2023-08-21T11:35:12;29.10;1.00
14614;DHT22;7393;51.446;6.800;2023-08-21T11:37:44;29.20;1.00
14614;DHT22;7393;51.446;6.800;2023-08-21T11:40:13;29.10;1.00
14614;DHT22;7393;51.446;6.800;2023-08-21T11:42:40;29.00;1.00
14614;DHT22;7393;51.446;6.800;2023-08-21T11:45:08;28.90;1.00
14614;DHT22;7393;51.446;6.800;2023-08-21T11:47:36;28.80;1.00
14614;DHT22;7393;51.446;6.800;2023-08-21T11:50:04;28.70;1.00
14614;DHT22;7393;51.446;6.800;2023-08-21T11:52:33;28.80;1.00
14614;DHT22;7393;51.446;6.800;2023-08-21T11:55:07;28.80;1.00
14614;DHT22;7393;51.446;6.800;2023-08-21T11:57:34;28.90;1.00
14614;DHT22;7393;51.446;6.800;2023-08-21T12:00:02;28.90;1.00
14614;DHT22;7393;51.446;6.800;2023-08-21T12:02:32;29.00;1.00
14614;DHT22;7393;51.446;6.800;2023-08-21T12:05:01;29.00;1.00
14614;DHT22;7393;51.446;6.800;2023-08-21T12:07:30;29.20;1.00
14614;DHT22;7393;51.446;6.800;2023-08-21T12:09:58;29.20;1.00
14614;DHT22;7393;51.446;6.800;2023-08-21T12:12:25;29.20;1.00
14614;DHT22;7393;51.446;6.800;2023-08-21T12:14:52;29.30;1.00
14614;DHT22;7393;51.446;6.800;2023-08-21T12:17:19;29.40;1.00
14614;DHT22;7393;51.446;6.800;2023-08-21T12:19:45;29.60;1.00
14614;DHT22;7393;51.446;6.800;2023-08-21T12:22:12;29.60;1.00
14614;DHT22;7393;51.446;6.800;2023-08-21T12:24:39;29.50;1.00
14614;DHT22;7393;51.446;6.800;2023-08-21T12:27:07;29.50;1.00
14614;DHT22;7393;51.446;6.800;2023-08-21T12:29:34;29.60;1.00
14614;DHT22;7393;51.446;6.800;2023-08-21T12:32:01;29.70;1.00
14614;DHT22;7393;51.446;6.800;2023-08-21T12:34:29;29.90;1.00
14614;DHT22;7393;51.446;6.800;2023-08-21T12:36:55;30.00;1.00
14614;DHT22;7393;51.446;6.800;2023-08-21T12:39:23;30.00;1.00
14614;DHT22;7393;51.446;6.800;2023-08-21T12:41:49;29.90;1.00
14614;DHT22;7393;51.446;6.800;2023-08-21T12:44:18;30.00;1.00
14614;DHT22;7393;51.446;6.800;2023-08-21T12:46:44;30.00;1.00
14614;DHT22;7393;51.446;6.800;2023-08-21T12:49:12;30.10;1.00
14614;DHT22;7393;51.446;6.800;2023-08-21T12:51:38;30.30;1.00
14614;DHT22;7393;51.446;6.800;2023-08-21T12:54:05;30.40;1.00
14614;DHT22;7393;51.446;6.800;2023-08-21T12:56:34;30.40;1.00
14614;DHT22;7393;51.446;6.800;2023-08-21T12:59:01;30.30;1.00
14614;DHT22;7393;51.446;6.800;2023-08-21T13:01:30;30.50;1.00
14614;DHT22;7393;51.446;6.800;2023-08-21T13:03:59;30.70;1.00
14614;DHT22;7393;51.446;6.800;2023-08-21T13:06:26;30.90;1.00
14614;DHT22;7393;51.446;6.800;2023-08-21T13:08:53;31.00;1.00
14614;DHT22;7393;51.446;6.800;2023-08-21T13:11:20;31.00;1.00
14614;DHT22;7393;51.446;6.800;2023-08-21T13:13:47;30.80;1.00
14614;DHT22;7393;51.446;6.800;2023-08-21T13:16:14;30.70;1.00
14614;DHT22;7393;51.446;6.800;2023-08-21T13:18:42;30.50;1.00
14614;DHT22;7393;51.446;6.800;2023-08-21T13:21:08;30.40;1.00
14614;DHT22;7393;51.446;6.800;2023-08-21T13:23:35;30.30;1.00
14614;DHT22;7393;51.446;6.800;2023-08-21T13:26:02;30.40;1.00
14614;DHT22;7393;51.446;6.800;2023-08-21T13:28:29;30.50;1.00
14614;DHT22;7393;51.446;6.800;2023-08-21T13:30:56;30.60;1.00
14614;DHT22;7393;51.446;6.800;2023-08-21T13:33:23;30.70;1.00
14614;DHT22;7393;51.446;6.800;2023-08-21T13:35:52;30.70;1.00
14614;DHT22;7393;51.446;6.800;2023-08-21T13:38:19;30.70;1.00
14614;DHT22;7393;51.446;6.800;2023-08-21T13:40:45;30.50;1.00
14614;DHT22;7393;51.446;6.800;2023-08-21T13:43:12;30.50;1.00
14614;DHT22;7393;51.446;6.800;2023-08-21T13:45:39;30.60;1.00
14614;DHT22;7393;51.446;6.800;2023-08-21T13:48:06;30.50;1.00
14614;DHT22;7393;51.446;6.800;2023-08-21T13:50:33;30.60;1.00
14614;DHT22;7393;51.446;6.800;2023-08-21T13:53:01;30.70;1.00
14614;DHT22;7393;51.446;6.800;2023-08-21T13:55:28;30.70;1.00
14614;DHT22;7393;51.446;6.800;2023-08-21T13:57:55;30.60;1.00
14614;DHT22;7393;51.446;6.800;2023-08-21T14:00:22;30.50;1.00
14614;DHT22;7393;51.446;6.800;2023-08-21T14:02:49;30.60;1.00
14614;DHT22;7393;51.446;6.800;2023-08-21T14:05:16;30.40;1.00
14614;DHT22;7393;51.446;6.800;2023-08-21T14:07:43;30.20;1.00
14614;DHT22;7393;51.446;6.800;2023-08-21T14:10:11;30.10;1.00
14614;DHT22;7393;51.446;6.800;2023-08-21T14:12:39;30.20;1.00
14614;DHT22;7393;51.446;6.800;2023-08-21T14:15:06;30.30;1.00
14614;DHT22;7393;51.446;6.800;2023-08-21T14:17:33;30.30;1.00
14614;DHT22;7393;51.446;6.800;2023-08-21T14:20:00;30.30;1.00
14614;DHT22;7393;51.446;6.800;2023-08-21T14:22:27;30.40;1.00
14614;DHT22;7393;51.446;6.800;2023-08-21T14:24:54;30.30;1.00
14614;DHT22;7393;51.446;6.800;2023-08-21T14:27:22;30.30;1.00
14614;DHT22;7393;51.446;6.800;2023-08-21T14:29:49;30.20;1.00
14614;DHT22;7393;51.446;6.800;2023-08-21T14:32:16;30.00;1.00
14614;DHT22;7393;51.446;6.800;2023-08-21T14:34:43;30.00;1.00
14614;DHT22;7393;51.446;6.800;2023-08-21T14:37:11;29.90;1.00
14614;DHT22;7393;51.446;6.800;2023-08-21T14:39:40;30.00;1.00
14614;DHT22;7393;51.446;6.800;2023-08-21T14:42:08;29.70;1.00
14614;DHT22;7393;51.446;6.800;2023-08-21T14:44:36;29.50;1.00
14614;DHT22;7393;51.446;6.800;2023-08-21T14:47:03;29.30;1.00
14614;DHT22;7393;51.446;6.800;2023-08-21T14:49:30;29.20;1.00
14614;DHT22;7393;51.446;6.800;2023-08-21T14:51:57;29.10;1.00
14614;DHT22;7393;51.446;6.800;2023-08-21T14:54:24;28.90;1.00
14614;DHT22;7393;51.446;6.800;2023-08-21T14:56:51;28.80;1.00
14614;DHT22;7393;51.446;6.800;2023-08-21T14:59:18;28.80;1.00
14614;DHT22;7393;51.446;6.800;2023-08-21T15:01:46;28.90;1.00
14614;DHT22;7393;51.446;6.800;2023-08-21T15:04:13;28.80;1.00
14614;DHT22;7393;51.446;6.800;2023-08-21T15:06:40;28.80;1.00
14614;DHT22;7393;51.446;6.800;2023-08-21T15:09:08;28.70;1.00
14614;DHT22;7393;51.446;6.800;2023-08-21T15:11:35;28.60;1.00
14614;DHT22;7393;51.446;6.800;2023-08-21T15:14:02;28.60;1.00
14614;DHT22;7393;51.446;6.800;2023-08-21T15:16:29;28.50;1.00
14614;DHT22;7393;51.446;6.800;2023-08-21T15:18:57;28.50;1.00
14614;DHT22;7393;51.446;6.800;2023-08-21T15:21:24;28.40;1.00
14614;DHT22;7393;51.446;6.800;2023-08-21T15:23:51;28.40;1.00
14614;DHT22;7393;51.446;6.800;2023-08-21T15:26:18;28.40;1.00
14614;DHT22;7393;51.446;6.800;2023-08-21T15:28:45;28.40;1.00
14614;DHT22;7393;51.446;6.800;2023-08-21T15:31:12;28.40;1.00
14614;DHT22;7393;51.446;6.800;2023-08-21T15:33:39;28.40;1.00
14614;DHT22;7393;51.446;6.800;2023-08-21T15:36:07;28.40;1.00
14614;DHT22;7393;51.446;6.800;2023-08-21T15:38:34;28.40;1.00
14614;DHT22;7393;51.446;6.800;2023-08-21T15:41:01;28.40;1.00
14614;DHT22;7393;51.446;6.800;2023-08-21T15:43:27;28.40;1.00
14614;DHT22;7393;51.446;6.800;2023-08-21T15:45:54;28.40;1.00
14614;DHT22;7393;51.446;6.800;2023-08-21T15:48:21;28.40;1.00
14614;DHT22;7393;51.446;6.800;2023-08-21T15:50:48;28.40;1.00
14614;DHT22;7393;51.446;6.800;2023-08-21T15:53:16;28.40;1.00
14614;DHT22;7393;51.446;6.800;2023-08-21T15:55:43;28.30;1.00
14614;DHT22;7393;51.446;6.800;2023-08-21T15:58:11;28.40;1.00
14614;DHT22;7393;51.446;6.800;2023-08-21T16:00:38;28.30;1.00